createdAt,value
2017-11-08T00:01:47.259Z,32.47
2017-11-08T00:04:18.176Z,29.00
2017-11-08T00:06:44.224Z,31.30
2017-11-08T00:09:10.195Z,28.73
2017-11-08T00:11:36.228Z,32.40
2017-11-08T00:14:02.263Z,27.80
2017-11-08T00:16:28.379Z,27.17
2017-11-08T00:18:57.413Z,31.10
2017-11-08T00:21:30.247Z,30.77
2017-11-08T00:23:56.997Z,29.90
2017-11-08T00:26:23.046Z,29.27
2017-11-08T00:28:49.068Z,28.90
2017-11-08T00:31:15.071Z,26.20
2017-11-08T00:33:41.133Z,28.30
2017-11-08T00:36:08.092Z,26.90
2017-11-08T00:38:34.070Z,27.93
2017-11-08T00:41:00.076Z,29.97
2017-11-08T00:43:26.089Z,27.70
2017-11-08T00:45:52.107Z,25.53
2017-11-08T00:48:18.077Z,30.10
2017-11-08T00:50:44.100Z,29.57
2017-11-08T00:53:10.094Z,27.53
2017-11-08T00:55:36.104Z,30.30
2017-11-08T00:58:02.112Z,30.27
2017-11-08T01:00:28.060Z,33.00
2017-11-08T01:02:55.187Z,26.07
2017-11-08T01:05:21.224Z,27.77
2017-11-08T01:07:47.669Z,32.33
2017-11-08T01:10:13.690Z,27.10
2017-11-08T01:12:39.730Z,28.57
2017-11-08T01:15:05.724Z,25.30
2017-11-08T01:17:31.771Z,28.53
2017-11-08T01:19:57.746Z,29.60
2017-11-08T01:22:23.824Z,26.23
2017-11-08T01:24:49.816Z,26.97
2017-11-08T01:27:16.598Z,28.10
2017-11-08T01:29:42.529Z,30.60
2017-11-08T01:32:08.630Z,30.00
2017-11-08T01:34:34.650Z,28.53
2017-11-08T01:37:02.518Z,30.43
2017-11-08T01:39:28.538Z,31.80
2017-11-08T01:41:54.538Z,31.30
2017-11-08T01:44:21.230Z,32.20
2017-11-08T01:46:47.208Z,31.27
2017-11-08T01:49:15.154Z,27.67
2017-11-08T01:51:41.243Z,29.30
2017-11-08T01:54:07.251Z,29.57
2017-11-08T01:56:33.275Z,29.00
2017-11-08T01:58:59.255Z,30.97
2017-11-08T02:01:25.260Z,27.40
2017-11-08T02:03:51.238Z,33.20
2017-11-08T02:06:17.274Z,27.40
2017-11-08T02:08:43.292Z,28.93
2017-11-08T02:11:09.465Z,29.73
2017-11-08T02:13:36.407Z,33.47
2017-11-08T02:16:05.270Z,30.70
2017-11-08T02:18:36.165Z,28.97
2017-11-08T02:21:02.180Z,31.60
2017-11-08T02:23:31.255Z,32.20
2017-11-08T02:25:57.224Z,28.80
2017-11-08T02:28:23.228Z,29.87
2017-11-08T02:30:49.226Z,31.77
2017-11-08T02:33:15.244Z,31.60
2017-11-08T02:35:41.192Z,28.10
2017-11-08T02:38:07.189Z,34.43
2017-11-08T02:40:33.254Z,28.40
2017-11-08T02:43:01.001Z,33.27
2017-11-08T02:45:30.926Z,31.23
2017-11-08T02:47:58.246Z,28.03
2017-11-08T02:50:24.435Z,30.53
2017-11-08T02:52:50.403Z,29.93
2017-11-08T02:55:16.480Z,32.60
2017-11-08T02:57:42.478Z,28.13
2017-11-08T03:00:08.464Z,30.60
2017-11-08T03:02:40.396Z,28.83
2017-11-08T03:05:12.596Z,30.47
2017-11-08T03:07:39.414Z,30.67
2017-11-08T03:10:05.498Z,31.77
2017-11-08T03:12:31.474Z,32.07
2017-11-08T03:14:58.249Z,32.67
2017-11-08T03:17:24.199Z,33.30
2017-11-08T03:19:50.156Z,33.90
2017-11-08T03:22:16.156Z,33.17
2017-11-08T03:24:42.163Z,35.00
2017-11-08T03:27:08.232Z,32.10
2017-11-08T03:29:34.969Z,32.70
2017-11-08T03:32:00.992Z,31.00
2017-11-08T03:34:27.015Z,37.77
2017-11-08T03:36:53.164Z,33.43
2017-11-08T03:39:19.163Z,34.03
2017-11-08T03:41:45.194Z,33.13
2017-11-08T03:44:11.217Z,35.70
2017-11-08T03:46:37.242Z,33.27
2017-11-08T03:49:03.292Z,35.97
2017-11-08T03:51:29.295Z,33.40
2017-11-08T03:53:55.303Z,31.77
2017-11-08T03:56:21.307Z,37.33
2017-11-08T03:58:47.299Z,34.50
2017-11-08T04:01:13.273Z,36.90
2017-11-08T04:03:39.203Z,34.90
2017-11-08T04:06:05.170Z,35.20
2017-11-08T04:08:31.185Z,32.40
2017-11-08T04:10:57.305Z,36.57
2017-11-08T04:13:23.328Z,37.33
2017-11-08T04:15:49.355Z,35.43
2017-11-08T04:18:15.330Z,35.67
2017-11-08T04:20:41.338Z,33.73
2017-11-08T04:23:07.385Z,37.20
2017-11-08T04:25:33.363Z,35.10
2017-11-08T04:27:59.551Z,36.93
2017-11-08T04:30:25.535Z,44.23
2017-11-08T04:32:52.232Z,38.67
2017-11-08T04:35:18.174Z,39.57
2017-11-08T04:37:44.248Z,41.63
2017-11-08T04:40:10.256Z,40.80
2017-11-08T04:42:36.247Z,43.57
2017-11-08T04:45:02.397Z,37.43
2017-11-08T04:47:28.389Z,40.37
2017-11-08T04:49:54.368Z,41.30
2017-11-08T04:52:20.362Z,42.33
2017-11-08T04:54:46.363Z,43.53
2017-11-08T04:57:12.384Z,39.27
2017-11-08T04:59:38.409Z,37.20
2017-11-08T05:02:04.461Z,41.37
2017-11-08T05:04:30.534Z,47.93
2017-11-08T05:06:56.507Z,47.30
2017-11-08T05:09:22.529Z,42.20
2017-11-08T05:11:48.544Z,44.33
2017-11-08T05:14:14.543Z,47.10
2017-11-08T05:16:40.620Z,44.90
2017-11-08T05:19:06.689Z,44.80
2017-11-08T05:21:32.744Z,46.43
2017-11-08T05:23:58.744Z,42.80
2017-11-08T05:26:24.836Z,38.00
2017-11-08T05:28:51.706Z,40.00
2017-11-08T05:31:18.425Z,44.83
2017-11-08T05:33:44.453Z,45.43
2017-11-08T05:36:10.514Z,43.87
2017-11-08T05:38:36.456Z,43.07
2017-11-08T05:41:02.503Z,42.67
2017-11-08T05:43:28.468Z,44.30
2017-11-08T05:45:54.736Z,46.63
2017-11-08T05:48:20.879Z,44.23
2017-11-08T05:50:47.749Z,38.30
2017-11-08T05:53:13.811Z,41.80
2017-11-08T05:55:39.808Z,41.13
2017-11-08T05:58:06.584Z,42.53
2017-11-08T06:00:32.686Z,38.07
2017-11-08T06:02:58.710Z,46.03
2017-11-08T06:05:24.960Z,40.60
2017-11-08T06:07:51.068Z,41.40
2017-11-08T06:10:17.057Z,44.17
2017-11-08T06:12:43.102Z,42.60
2017-11-08T06:15:09.117Z,48.73
2017-11-08T06:17:35.164Z,47.90
2017-11-08T06:20:01.472Z,47.03
2017-11-08T06:22:28.236Z,49.23
2017-11-08T06:24:54.183Z,50.40
2017-11-08T06:27:20.407Z,47.20
2017-11-08T06:29:46.453Z,45.40
2017-11-08T06:32:12.526Z,47.80
2017-11-08T06:34:38.606Z,54.20
2017-11-08T06:37:05.022Z,49.10
2017-11-08T06:39:31.374Z,49.83
2017-11-08T06:41:57.502Z,51.20
2017-11-08T06:44:23.814Z,50.77
2017-11-08T06:46:49.847Z,48.70
2017-11-08T06:49:15.867Z,51.23
2017-11-08T06:51:42.088Z,55.10
2017-11-08T06:54:08.745Z,53.50
2017-11-08T06:56:34.720Z,56.30
2017-11-08T06:59:02.101Z,48.10
2017-11-08T07:01:28.207Z,48.83
2017-11-08T07:03:54.853Z,52.33
2017-11-08T07:06:22.119Z,55.07
2017-11-08T07:08:48.144Z,58.53
2017-11-08T07:11:14.273Z,53.80
2017-11-08T07:13:40.306Z,54.77
2017-11-08T07:16:07.022Z,48.30
2017-11-08T07:18:33.099Z,54.80
2017-11-08T07:20:59.091Z,51.03
2017-11-08T07:23:25.088Z,46.87
2017-11-08T07:25:51.158Z,51.60
2017-11-08T07:28:17.242Z,53.83
2017-11-08T07:30:43.292Z,48.30
2017-11-08T07:33:09.318Z,54.27
2017-11-08T07:35:35.427Z,49.40
2017-11-08T07:38:01.563Z,59.10
2017-11-08T07:40:28.580Z,56.40
2017-11-08T07:42:55.434Z,52.27
2017-11-08T07:45:21.562Z,60.60
2017-11-08T07:47:47.720Z,54.17
2017-11-08T07:50:13.692Z,57.47
2017-11-08T07:52:39.737Z,53.87
2017-11-08T07:55:08.620Z,57.20
2017-11-08T07:57:34.768Z,50.90
2017-11-08T08:00:00.779Z,48.37
2017-11-08T08:02:26.855Z,62.93
2017-11-08T08:04:53.819Z,62.53
2017-11-08T08:07:19.907Z,56.60
2017-11-08T08:09:50.529Z,58.50
2017-11-08T08:12:17.597Z,66.27
2017-11-08T08:14:45.536Z,59.00
2017-11-08T08:17:12.402Z,56.93
2017-11-08T08:19:38.530Z,55.53
2017-11-08T08:22:04.655Z,61.37
2017-11-08T08:24:30.803Z,61.23
2017-11-08T08:27:02.924Z,58.47
2017-11-08T08:29:29.054Z,57.30
2017-11-08T08:31:55.211Z,59.70
2017-11-08T08:34:21.293Z,59.87
2017-11-08T08:36:47.362Z,58.53
2017-11-08T08:39:13.369Z,61.70
2017-11-08T08:41:39.596Z,55.83
2017-11-08T08:44:06.050Z,61.50
2017-11-08T08:46:32.370Z,65.40
2017-11-08T08:48:58.491Z,61.77
2017-11-08T08:51:25.333Z,63.77
2017-11-08T08:53:51.377Z,57.83
2017-11-08T08:56:18.300Z,61.90
2017-11-08T08:58:44.290Z,55.67
2017-11-08T09:01:10.929Z,61.20
2017-11-08T09:03:37.070Z,61.43
2017-11-08T09:06:03.182Z,62.00
2017-11-08T09:08:29.821Z,63.60
2017-11-08T09:10:55.964Z,57.70
2017-11-08T09:13:22.137Z,64.00
2017-11-08T09:15:48.915Z,61.43
2017-11-08T09:18:15.691Z,63.00
2017-11-08T09:20:41.683Z,58.80
2017-11-08T09:23:08.054Z,58.90
2017-11-08T09:25:34.097Z,62.03
2017-11-08T09:28:00.835Z,64.23
2017-11-08T09:30:28.618Z,62.40
2017-11-08T09:32:54.603Z,60.80
2017-11-08T09:35:22.740Z,61.30
2017-11-08T09:37:53.536Z,59.70
2017-11-08T09:40:22.697Z,60.73
2017-11-08T09:42:48.825Z,62.53
2017-11-08T09:45:14.975Z,58.00
2017-11-08T09:47:41.035Z,67.27
2017-11-08T09:50:07.177Z,63.00
2017-11-08T09:52:35.166Z,59.97
2017-11-08T09:55:01.234Z,61.60
2017-11-08T09:57:27.213Z,59.90
2017-11-08T09:59:53.370Z,65.33
2017-11-08T10:02:19.523Z,60.37
2017-11-08T10:04:46.220Z,65.10
2017-11-08T10:07:12.265Z,62.13
2017-11-08T10:09:41.327Z,62.67
2017-11-08T10:12:12.249Z,61.47
2017-11-08T10:14:39.319Z,66.63
2017-11-08T10:17:05.399Z,61.73
2017-11-08T10:19:31.402Z,74.70
2017-11-08T10:21:57.425Z,72.80
2017-11-08T10:24:23.498Z,63.40
2017-11-08T10:26:49.781Z,69.30
2017-11-08T10:29:16.128Z,71.47
2017-11-08T10:31:42.052Z,72.20
2017-11-08T10:34:08.063Z,73.93
2017-11-08T10:36:34.231Z,72.50
2017-11-08T10:39:00.588Z,73.60
2017-11-08T10:41:26.791Z,66.73
2017-11-08T10:43:52.805Z,72.10
2017-11-08T10:46:19.237Z,68.33
2017-11-08T10:48:45.515Z,82.87
2017-11-08T10:51:11.603Z,75.60
2017-11-08T10:53:38.372Z,73.30
2017-11-08T10:56:04.368Z,69.23
2017-11-08T10:58:30.384Z,77.90
2017-11-08T11:00:59.005Z,84.90
2017-11-08T11:03:25.931Z,74.70
2017-11-08T11:05:51.943Z,70.53
2017-11-08T11:08:18.968Z,80.57
2017-11-08T11:10:45.930Z,81.20
2017-11-08T11:13:14.126Z,84.27
2017-11-08T11:15:40.150Z,81.90
2017-11-08T11:18:06.412Z,77.00
2017-11-08T11:20:32.444Z,79.23
2017-11-08T11:22:58.401Z,73.80
2017-11-08T11:25:26.271Z,73.87
2017-11-08T11:27:52.306Z,81.50
2017-11-08T11:30:24.323Z,81.17
2017-11-08T11:32:50.362Z,73.17
2017-11-08T11:35:16.355Z,77.40
2017-11-08T11:37:47.527Z,75.23
2017-11-08T11:40:13.732Z,79.90
2017-11-08T11:42:39.825Z,77.70
2017-11-08T11:45:06.110Z,77.60
2017-11-08T11:47:35.928Z,74.77
2017-11-08T11:50:01.974Z,72.10
2017-11-08T11:52:28.043Z,72.57
2017-11-08T11:54:54.040Z,79.07
2017-11-08T11:57:20.111Z,76.60
2017-11-08T11:59:48.044Z,74.33
2017-11-08T12:02:14.312Z,82.50
2017-11-08T12:04:41.115Z,73.10
2017-11-08T12:07:07.275Z,67.80
2017-11-08T12:09:33.245Z,75.90
2017-11-08T12:11:59.417Z,69.97
2017-11-08T12:14:25.498Z,73.20
2017-11-08T12:16:52.471Z,73.30
2017-11-08T12:19:18.863Z,72.10
2017-11-08T12:21:46.252Z,69.43
2017-11-08T12:24:12.643Z,74.07
2017-11-08T12:26:40.399Z,74.13
2017-11-08T12:29:07.349Z,73.37
2017-11-08T12:31:33.490Z,73.80
2017-11-08T12:34:01.027Z,77.50
2017-11-08T12:39:01.612Z,81.63
2017-11-08T12:41:29.440Z,81.47
2017-11-08T12:46:29.078Z,81.23
2017-11-08T12:51:28.238Z,78.33
2017-11-08T12:56:25.254Z,80.57
2017-11-08T12:58:51.732Z,73.20
2017-11-08T13:01:18.884Z,72.80
2017-11-08T13:03:48.408Z,72.87
2017-11-08T13:11:21.655Z,70.50
2017-11-08T13:13:48.715Z,75.80
2017-11-08T13:16:15.085Z,74.30
2017-11-08T13:18:41.413Z,80.90
2017-11-08T13:21:11.942Z,91.17
2017-11-08T13:23:38.087Z,83.67
2017-11-08T13:28:37.185Z,69.27
2017-11-08T13:31:03.697Z,78.40
2017-11-08T13:36:01.777Z,75.23
2017-11-08T13:38:28.844Z,80.03
2017-11-08T13:40:55.580Z,74.87
2017-11-08T13:43:25.078Z,82.73
2017-11-08T13:45:51.410Z,86.97
2017-11-08T13:48:18.063Z,77.17
2017-11-08T13:53:15.528Z,84.07
2017-11-08T13:55:42.582Z,74.20
2017-11-08T13:58:08.700Z,80.20
2017-11-08T14:05:41.332Z,84.80
2017-11-08T14:08:09.740Z,74.37
2017-11-08T14:10:36.630Z,77.03
2017-11-08T14:20:36.492Z,77.70
2017-11-08T14:23:02.938Z,78.30
2017-11-08T14:25:30.491Z,71.97
2017-11-08T14:27:58.021Z,72.97
2017-11-08T14:30:25.045Z,72.37
2017-11-08T14:32:51.228Z,86.97
2017-11-08T14:35:17.370Z,83.27
2017-11-08T14:37:44.312Z,78.50
2017-11-08T14:40:10.418Z,71.27
2017-11-08T14:42:40.150Z,69.57
2017-11-08T14:45:08.598Z,83.50
2017-11-08T14:47:35.456Z,74.90
2017-11-08T14:50:03.117Z,83.93
2017-11-08T14:52:30.025Z,71.67
2017-11-08T14:54:57.013Z,84.50
2017-11-08T14:57:25.040Z,77.03
2017-11-08T14:59:53.230Z,69.77
2017-11-08T15:02:19.255Z,78.70
2017-11-08T15:04:45.228Z,93.03
2017-11-08T15:07:11.164Z,83.77
2017-11-08T15:09:37.180Z,81.20
2017-11-08T15:12:04.253Z,79.27
2017-11-08T15:14:36.401Z,74.63
2017-11-08T15:17:02.417Z,72.90
2017-11-08T15:19:28.852Z,80.60
2017-11-08T15:21:54.840Z,73.00
2017-11-08T15:24:21.599Z,70.60
2017-11-08T15:26:47.637Z,81.07
2017-11-08T15:29:13.753Z,72.93
2017-11-08T15:31:39.772Z,74.77
2017-11-08T15:34:05.765Z,73.03
2017-11-08T15:36:31.721Z,74.20
2017-11-08T15:38:57.710Z,76.70
2017-11-08T15:41:23.789Z,78.50
2017-11-08T15:43:49.810Z,74.77
2017-11-08T15:46:15.805Z,66.77
2017-11-08T15:48:42.638Z,74.03
2017-11-08T15:51:08.702Z,70.63
2017-11-08T15:53:34.717Z,76.60
2017-11-08T15:56:01.747Z,70.17
2017-11-08T15:58:27.769Z,77.93
2017-11-08T16:00:54.816Z,73.20
2017-11-08T16:03:21.769Z,70.63
2017-11-08T16:05:47.888Z,69.60
2017-11-08T16:08:16.880Z,78.60
2017-11-08T16:10:43.938Z,78.10
2017-11-08T16:13:11.517Z,74.07
2017-11-08T16:15:37.515Z,75.63
2017-11-08T16:18:03.534Z,78.53
2017-11-08T16:20:29.765Z,80.63
2017-11-08T16:22:55.819Z,74.20
2017-11-08T16:25:21.845Z,73.63
2017-11-08T16:27:48.636Z,76.70
2017-11-08T16:30:14.588Z,78.33
2017-11-08T16:32:41.239Z,85.03
2017-11-08T16:35:10.509Z,77.57
2017-11-08T16:37:36.960Z,81.10
2017-11-08T16:40:03.900Z,86.97
2017-11-08T16:42:30.125Z,76.17
2017-11-08T16:44:56.071Z,75.73
2017-11-08T16:47:22.086Z,72.53
2017-11-08T16:49:48.102Z,77.97
2017-11-08T16:52:17.499Z,78.93
2017-11-08T16:54:43.520Z,79.50
2017-11-08T16:57:09.595Z,81.93
2017-11-08T16:59:35.621Z,71.47
2017-11-08T17:02:01.843Z,83.67
2017-11-08T17:04:28.836Z,76.30
2017-11-08T17:06:54.965Z,86.93
2017-11-08T17:09:21.184Z,81.23
2017-11-08T17:11:48.072Z,79.27
2017-11-08T17:14:14.591Z,78.93
2017-11-08T17:16:40.855Z,73.03
2017-11-08T17:19:06.959Z,78.83
2017-11-08T17:21:33.695Z,82.33
2017-11-08T17:24:02.975Z,79.30
2017-11-08T17:26:30.050Z,76.73
2017-11-08T17:28:56.781Z,75.73
2017-11-08T17:31:22.778Z,82.53
2017-11-08T17:33:48.931Z,88.93
2017-11-08T17:36:14.982Z,84.07
2017-11-08T17:38:41.085Z,83.93
2017-11-08T17:41:07.094Z,83.50
2017-11-08T17:43:33.183Z,83.87
2017-11-08T17:45:59.204Z,84.97
2017-11-08T17:48:25.165Z,84.60
2017-11-08T17:50:51.283Z,78.40
2017-11-08T17:53:18.270Z,80.73
2017-11-08T17:55:45.392Z,83.93
2017-11-08T17:58:12.466Z,79.20
2017-11-08T18:00:38.523Z,90.03
2017-11-08T18:03:04.625Z,83.10
2017-11-08T18:05:30.628Z,95.33
2017-11-08T18:07:57.509Z,73.20
2017-11-08T18:10:23.475Z,84.47
2017-11-08T18:12:49.558Z,82.30
2017-11-08T18:15:15.848Z,86.20
2017-11-08T18:17:41.855Z,78.30
2017-11-08T18:20:08.748Z,77.67
2017-11-08T18:22:36.012Z,77.87
2017-11-08T18:25:02.072Z,75.67
2017-11-08T18:27:28.102Z,79.97
2017-11-08T18:29:54.854Z,96.83
2017-11-08T18:32:21.653Z,90.50
2017-11-08T18:34:48.953Z,82.80
2017-11-08T18:37:15.058Z,94.63
2017-11-08T18:39:41.102Z,80.13
2017-11-08T18:47:09.449Z,90.17
2017-11-08T18:49:35.775Z,81.33
2017-11-08T18:52:02.019Z,80.17
2017-11-08T18:54:29.159Z,79.47
2017-11-08T18:56:55.500Z,84.57
2017-11-08T18:59:25.049Z,84.03
2017-11-08T19:01:51.441Z,90.43
2017-11-08T19:04:18.087Z,87.13
2017-11-08T19:06:44.504Z,82.67
2017-11-08T19:09:13.463Z,91.83
2017-11-08T19:14:13.427Z,87.57
2017-11-08T19:19:10.949Z,88.50
2017-11-08T19:24:07.796Z,91.43
2017-11-08T19:26:34.804Z,91.43
2017-11-08T19:31:33.089Z,98.20
2017-11-08T19:36:34.292Z,95.77
2017-11-08T19:39:01.350Z,87.43
2017-11-08T19:41:28.877Z,88.67
2017-11-08T19:43:56.904Z,73.20
2017-11-08T19:46:23.265Z,88.20
2017-11-08T19:48:51.017Z,90.47
2017-11-08T19:51:17.019Z,82.13
2017-11-08T19:53:43.389Z,82.60
2017-11-08T19:56:09.698Z,89.47
2017-11-08T19:58:39.192Z,84.37
2017-11-08T20:01:05.359Z,83.07
2017-11-08T20:03:31.508Z,77.27
2017-11-08T20:06:00.764Z,75.47
2017-11-08T20:08:27.090Z,86.93
2017-11-08T20:10:53.328Z,77.90
2017-11-08T20:13:25.768Z,95.50
2017-11-08T20:15:51.968Z,85.20
2017-11-08T20:18:18.010Z,90.43
2017-11-08T20:20:45.710Z,86.27
2017-11-08T20:23:11.948Z,80.00
2017-11-08T20:25:38.768Z,89.13
2017-11-08T20:30:36.726Z,91.83
2017-11-08T20:35:34.226Z,82.47
2017-11-08T20:38:00.425Z,71.23
2017-11-08T20:40:27.368Z,83.00
2017-11-08T20:42:53.772Z,83.93
2017-11-08T20:45:20.609Z,69.80
2017-11-08T20:47:46.620Z,74.43
2017-11-08T20:50:12.844Z,84.53
2017-11-08T20:52:39.890Z,85.33
2017-11-08T20:55:06.127Z,82.63
2017-11-08T20:57:32.124Z,82.43
2017-11-08T20:59:58.852Z,78.87
2017-11-08T21:04:56.433Z,78.93
2017-11-08T21:09:53.108Z,71.80
2017-11-08T21:12:21.814Z,79.90
2017-11-08T21:17:19.315Z,77.90
2017-11-08T21:22:18.499Z,81.60
2017-11-08T21:24:45.437Z,76.33
2017-11-08T21:27:11.683Z,88.03
2017-11-08T21:29:41.828Z,73.37
2017-11-08T21:32:08.396Z,72.70
2017-11-08T21:34:34.405Z,86.77
2017-11-08T21:39:31.152Z,73.23
2017-11-08T21:44:31.279Z,84.00
2017-11-08T21:46:57.523Z,82.80
2017-11-08T21:49:26.113Z,80.47
2017-11-08T21:54:23.650Z,73.83
2017-11-08T21:56:49.728Z,77.63
2017-11-08T21:59:15.953Z,86.50
2017-11-08T22:01:42.275Z,76.90
2017-11-08T22:04:08.401Z,85.63
2017-11-08T22:06:35.142Z,84.80
2017-11-08T22:09:01.162Z,81.03
2017-11-08T22:11:27.392Z,85.03
2017-11-08T22:13:53.455Z,85.10
2017-11-08T22:16:20.458Z,87.33
2017-11-08T22:18:46.492Z,80.00
2017-11-08T22:21:12.741Z,78.70
2017-11-08T22:23:38.771Z,90.13
2017-11-08T22:26:04.796Z,78.47
2017-11-08T22:28:30.835Z,78.97
2017-11-08T22:30:56.871Z,88.43
2017-11-08T22:33:22.914Z,88.20
2017-11-08T22:35:49.813Z,81.17
2017-11-08T22:38:15.917Z,83.77
2017-11-08T22:40:42.117Z,74.43
2017-11-08T22:43:08.325Z,79.93
2017-11-08T22:45:34.293Z,83.20
2017-11-08T22:48:00.344Z,85.43
2017-11-08T22:50:26.372Z,76.17
2017-11-08T22:52:52.362Z,78.03
2017-11-08T22:55:18.404Z,74.37
2017-11-08T22:57:44.377Z,76.83
2017-11-08T23:00:10.460Z,79.93
2017-11-08T23:02:36.460Z,86.37
2017-11-08T23:05:03.201Z,86.10
2017-11-08T23:07:29.981Z,82.50
2017-11-08T23:09:55.944Z,82.07
2017-11-08T23:12:21.913Z,76.13
2017-11-08T23:14:47.904Z,87.80
2017-11-08T23:17:13.886Z,88.00
2017-11-08T23:19:39.910Z,72.07
2017-11-08T23:22:05.833Z,79.10
2017-11-08T23:24:32.079Z,92.30
2017-11-08T23:26:58.126Z,81.20
2017-11-08T23:29:24.337Z,85.77
2017-11-08T23:31:51.017Z,83.17
2017-11-08T23:34:16.964Z,88.70
2017-11-08T23:36:43.068Z,81.53
2017-11-08T23:39:09.622Z,81.77
2017-11-08T23:41:36.636Z,77.90
2017-11-08T23:44:02.640Z,86.20
2017-11-08T23:46:28.886Z,88.30
2017-11-08T23:51:26.504Z,82.27
2017-11-08T23:53:53.201Z,81.07
2017-11-08T23:56:20.977Z,80.63
2017-11-08T23:58:46.967Z,84.73
